Time;durP1;ratioP1;P1;durP2;ratioP2;P2;SDS_P1;SDS_P2;PMS_P1;PMS_P2;Temp;Humidity;BMP_temperature;BMP_pressure;BME280_temperature;BME280_humidity;BME280_pressure;Samples;Min_cycle;Max_cycle;Signal;HPM_P1;HPM_P2
2021/01/05 06:55:14;;;;;;;7.37;4.53;;;3.50;99.90;;;;;;6239283;23;20649;-72
2021/01/05 11:53:33;;;;;;;14.43;7.67;;;4.50;99.90;;;;;;6121010;23;20518;-73
2021/01/05 17:57:13;;;;;;;17.77;8.30;;;2.60;99.90;;;;;;6185060;23;20658;-75
2021/01/05 19:32:26;;;;;;;40.55;16.48;;;2.20;99.90;;;;;;6064700;23;20376;-75
2021/01/05 19:35:01;;;;;;;31.17;12.50;;;2.80;99.90;;;;;;6042409;23;20577;-76
2021/01/05 19:37:39;;;;;;;27.10;10.63;;;2.10;99.90;;;;;;5989445;23;20181;-76
2021/01/05 19:40:28;;;;;;;30.37;11.30;;;3.10;99.90;;;;;;5980386;24;20178;-76
2021/01/05 19:42:57;;;;;;;32.83;12.20;;;2.90;99.90;;;;;;5890174;24;20435;-85
2021/01/05 19:45:27;;;;;;;30.27;11.13;;;3.00;99.90;;;;;;5871155;24;20186;-83
2021/01/05 19:48:15;;;;;;;24.83;10.90;;;3.00;99.90;;;;;;5801975;24;20185;-74
2021/01/05 19:50:44;;;;;;;27.00;10.83;;;2.90;99.90;;;;;;5844195;24;20178;-91
2021/01/05 19:53:10;;;;;;;28.00;10.67;;;2.90;99.90;;;;;;5739129;24;20201;-75
2021/01/05 19:55:37;;;;;;;29.87;11.73;;;3.10;99.90;;;;;;5687783;25;20182;-72
2021/01/05 20:01:50;;;;;;;23.70;9.70;;;2.90;99.90;;;;;;5682286;25;20180;-76
2021/01/05 20:30:11;;;;;;;15.97;5.97;;;2.00;99.90;;;;;;5867639;24;20195;-76
2021/01/05 20:47:56;;;;;;;16.80;7.27;;;2.60;99.90;;;;;;6042570;23;20567;-75
2021/01/05 20:50:23;;;;;;;17.93;7.77;;;2.60;99.90;;;;;;6037048;23;20174;-76
2021/01/05 20:52:50;;;;;;;17.70;7.53;;;2.60;99.90;;;;;;6008593;23;20261;-76
2021/01/05 20:55:19;;;;;;;21.03;8.20;;;2.60;99.90;;;;;;6009332;23;20170;-74
2021/01/05 20:57:49;;;;;;;20.70;8.13;;;2.70;99.90;;;;;;6006629;23;20279;-79
2021/01/05 21:00:18;;;;;;;24.07;9.27;;;2.70;99.90;;;;;;6006476;23;20202;-78
2021/01/05 21:02:45;;;;;;;17.90;7.73;;;2.70;99.90;;;;;;6010818;23;20178;-77
2021/01/05 21:05:14;;;;;;;18.67;7.53;;;2.80;99.90;;;;;;5883203;24;20198;-74
2021/01/05 21:07:40;;;;;;;27.23;11.27;;;2.70;99.90;;;;;;6008920;23;20810;-73
2021/01/05 21:10:21;;;;;;;20.40;8.60;;;2.70;99.90;;;;;;5981750;24;20175;-79
2021/01/05 21:13:02;;;;;;;20.73;8.50;;;2.70;99.90;;;;;;5953672;24;20270;-74
2021/01/05 21:19:47;;;;;;;25.30;9.33;;;3.00;99.90;;;;;;5872144;24;20153;-76
2021/01/05 21:22:20;;;;;;;30.60;11.47;;;3.00;99.90;;;;;;5916476;24;20798;-81
2021/01/05 21:24:47;;;;;;;25.60;9.10;;;3.00;99.90;;;;;;5844923;24;20175;-76
2021/01/05 21:27:14;;;;;;;20.30;8.10;;;3.00;99.90;;;;;;5845409;24;20208;-80
2021/01/05 21:29:40;;;;;;;22.07;8.10;;;3.00;99.90;;;;;;5774428;24;20222;-74
2021/01/05 21:32:07;;;;;;;20.57;8.00;;;3.00;99.90;;;;;;5739970;24;20610;-75
2021/01/05 21:34:58;;;;;;;22.33;8.07;;;3.00;99.90;;;;;;5782015;24;20691;-81
2021/01/05 21:38:09;;;;;;;16.83;6.63;;;2.90;99.90;;;;;;5765427;24;20254;-80
2021/01/05 21:48:36;;;;;;;20.30;7.43;;;2.80;99.90;;;;;;5836648;24;20262;-88
2021/01/05 21:58:35;;;;;;;26.30;10.43;;;3.20;99.90;;;;;;5850027;24;20608;-83
2021/01/05 22:01:01;;;;;;;29.50;10.63;;;3.00;99.90;;;;;;5859539;24;20177;-77
2021/01/05 22:03:29;;;;;;;30.23;9.97;;;3.00;99.90;;;;;;5871594;24;20178;-74
2021/01/05 22:06:13;;;;;;;23.43;8.87;;;2.90;99.90;;;;;;5894444;24;20184;-78
2021/01/05 22:08:53;;;;;;;20.90;8.63;;;3.00;99.90;;;;;;5844765;24;20235;-74
2021/01/05 22:11:24;;;;;;;32.13;12.45;;;3.10;99.90;;;;;;5843628;24;20427;-74
2021/01/05 22:13:52;;;;;;;22.97;10.50;;;3.00;99.90;;;;;;5844855;24;20198;-72
2021/01/05 22:16:26;;;;;;;23.53;10.23;;;3.10;99.90;;;;;;5818052;24;20179;-73
2021/01/05 22:18:56;;;;;;;25.63;9.37;;;3.00;99.90;;;;;;5818030;24;20477;-73
2021/01/05 22:21:23;;;;;;;23.37;9.10;;;3.00;99.90;;;;;;5765256;24;20665;-74
2021/01/05 22:23:49;;;;;;;18.27;7.80;;;3.00;99.90;;;;;;5765925;24;20260;-73
2021/01/05 22:26:16;;;;;;;26.00;8.70;;;3.00;99.90;;;;;;5765569;24;20318;-74
2021/01/05 22:28:43;;;;;;;24.00;9.17;;;3.00;99.90;;;;;;5755854;24;20177;-74
2021/01/05 22:31:10;;;;;;;25.40;8.90;;;3.00;99.90;;;;;;5765732;24;20494;-75
2021/01/05 22:33:37;;;;;;;30.27;9.83;;;3.00;99.90;;;;;;5765735;24;20205;-74
2021/01/05 22:36:04;;;;;;;23.13;9.50;;;2.90;99.90;;;;;;5766425;24;20188;-75
2021/01/05 22:38:32;;;;;;;26.50;10.07;;;2.90;99.90;;;;;;5783439;24;20176;-75
2021/01/05 22:41:00;;;;;;;25.47;9.90;;;2.90;99.90;;;;;;5889388;24;20178;-74
2021/01/05 22:43:30;;;;;;;27.30;9.87;;;2.90;99.90;;;;;;5888482;24;20277;-74
2021/01/05 22:45:59;;;;;;;19.53;8.37;;;2.90;99.90;;;;;;5900059;24;20181;-74
2021/01/05 22:48:27;;;;;;;27.40;9.27;;;2.90;99.90;;;;;;5979660;24;20181;-75
2021/01/05 22:50:54;;;;;;;24.57;9.67;;;2.90;99.90;;;;;;6033639;23;20185;-75
2021/01/05 22:53:21;;;;;;;26.43;10.17;;;2.90;99.90;;;;;;6116796;23;20266;-75
2021/01/05 22:55:48;;;;;;;20.07;9.07;;;2.90;99.90;;;;;;6167728;23;20177;-75
2021/01/05 22:58:17;;;;;;;20.13;8.70;;;2.90;99.90;;;;;;6153228;23;20554;-75
2021/01/05 23:00:46;;;;;;;19.23;8.07;;;2.90;99.90;;;;;;6154390;23;20175;-75
2021/01/05 23:03:15;;;;;;;17.07;7.97;;;2.90;99.90;;;;;;6034102;23;20288;-75
2021/01/05 23:05:43;;;;;;;18.63;8.37;;;2.90;99.90;;;;;;6124373;23;20219;-75
2021/01/05 23:08:14;;;;;;;16.83;8.70;;;2.80;99.90;;;;;;6124290;23;20179;-74
2021/01/05 23:10:42;;;;;;;28.98;13.75;;;2.80;99.90;;;;;;6124091;23;20393;-76
2021/01/05 23:13:15;;;;;;;24.40;11.43;;;2.80;99.90;;;;;;6124094;23;20194;-76
2021/01/05 23:15:42;;;;;;;24.20;10.33;;;2.80;99.90;;;;;;6125093;23;20179;-74
2021/01/05 23:18:11;;;;;;;18.40;8.97;;;2.90;99.90;;;;;;6120384;23;20206;-75
2021/01/05 23:20:41;;;;;;;19.77;9.27;;;2.90;99.90;;;;;;6065636;23;20492;-74
2021/01/05 23:23:09;;;;;;;21.50;9.23;;;3.00;99.90;;;;;;6077479;23;20630;-74
2021/01/05 23:25:35;;;;;;;19.03;8.13;;;3.00;99.90;;;;;;6066094;23;20180;-75
2021/01/05 23:28:03;;;;;;;18.90;8.70;;;3.00;99.90;;;;;;6094581;23;20174;-75
2021/01/05 23:30:32;;;;;;;25.57;9.90;;;3.00;99.90;;;;;;6124122;23;20215;-74
2021/01/05 23:33:00;;;;;;;27.80;10.17;;;2.90;99.90;;;;;;6124080;23;20167;-74
2021/01/05 23:35:29;;;;;;;26.00;9.87;;;2.90;99.90;;;;;;6124002;23;20195;-75
2021/01/05 23:37:56;;;;;;;21.73;9.73;;;2.90;99.90;;;;;;6153322;23;20167;-74
2021/01/05 23:40:29;;;;;;;21.50;8.93;;;2.90;99.90;;;;;;6153639;23;20178;-75
2021/01/05 23:42:56;;;;;;;37.17;15.55;;;2.90;99.90;;;;;;6152875;23;20513;-72
2021/01/05 23:45:26;;;;;;;27.90;11.77;;;2.90;99.90;;;;;;6153509;23;20222;-73
2021/01/05 23:47:52;;;;;;;22.27;9.63;;;2.90;99.90;;;;;;6095532;23;20277;-73
2021/01/05 23:50:22;;;;;;;22.93;9.63;;;2.90;99.90;;;;;;6095008;23;20168;-73
2021/01/05 23:52:48;;;;;;;27.63;10.73;;;2.90;99.90;;;;;;6036744;23;20173;-73
2021/01/05 23:55:15;;;;;;;48.57;12.60;;;2.90;99.90;;;;;;5980610;24;20195;-73
2021/01/05 23:57:42;;;;;;;75.03;15.23;;;2.90;99.90;;;;;;6034068;23;20232;-73
